Home   Weather   Sweden   Stockholm   Past weeks
Flag for Sweden

Past Weather in Stockholm, Sweden — Yesterday and Last 2 Weeks

Currently: 54 °F. Sunny. (Weather station: Stockholm Bromma Airport, Sweden). See more current weather

Past Weather in Stockholm — Graph

°F

Stockholm Temperature Yesterday

Maximum temperature yesterday: 57 °F (at 12:20 pm)
Minimum temperature yesterday: 32 °F (at 3:50 am)
Average temperature yesterday: 47 °F

High & Low Weather Summary for the Past Weeks

 TemperatureHumidityPressure
High57 °F (Apr 17, 3:50 pm)100% (Apr 7, 4:50 am)30.51 "Hg (Apr 7, 4:50 am)
Low25 °F (Apr 8, 5:20 am)23% (Apr 17, 4:20 pm)28.88 "Hg (Apr 5, 10:20 am)
Average41 °F60%29.93 "Hg
* Reported Apr 5 10:20 am — Apr 20 10:20 am, Stockholm. Weather by CustomWeather, © 2021

Note: Actual official high and low records may vary slightly from our data, if they occured in-between our weather recording intervals... More about our weather records

Stockholm Weather History for the Previous 24 Hours

Scroll right to see more
 ConditionsComfort  
Time TempWeatherWind HumidityBarometerVisibility
10:20 am
Tue, Apr 20
54 °FSunny.7 mph33%30.12 "Hg10 mi
9:50 am52 °FPassing clouds.7 mph38%30.12 "HgN/A
9:20 am52 °FSunny.8 mph38%30.15 "Hg10 mi
8:50 am48 °FSunny.6 mph43%30.15 "Hg10 mi
8:20 am48 °FSunny.7 mph46%30.15 "Hg10 mi
7:50 am45 °FPassing clouds.5 mph57%30.15 "HgN/A
7:20 am41 °FSunny.No wind66%30.18 "Hg10 mi
6:50 am37 °FSunny.2 mph75%30.18 "Hg10 mi
6:20 am32 °FSunny.No wind87%30.18 "Hg10 mi
5:50 am32 °FChilly.No wind87%30.18 "HgN/A
5:20 am30 °FChilly.2 mph86%30.18 "HgN/A
4:50 am30 °FChilly.2 mph93%30.21 "HgN/A
4:20 am32 °FChilly.1 mph87%30.21 "HgN/A
3:50 am32 °FChilly.No wind87%30.21 "HgN/A
3:20 am32 °FChilly.1 mph87%30.21 "HgN/A
2:50 am34 °FChilly.1 mph81%30.21 "HgN/A
2:20 am36 °FChilly.2 mph81%30.24 "HgN/A
1:50 am36 °FChilly.1 mph81%30.24 "HgN/A
1:20 am36 °FChilly.2 mph81%30.24 "HgN/A
12:50 am39 °FChilly.2 mph70%30.24 "HgN/A
12:20 am39 °FChilly.3 mph70%30.27 "HgN/A
11:50 pm
Mon, Apr 19
43 °FQuite cool.3 mph61%30.27 "HgN/A
11:20 pm45 °FQuite cool.3 mph57%30.27 "HgN/A
10:50 pm45 °FQuite cool.2 mph61%30.27 "HgN/A
10:20 pm43 °FQuite cool.3 mph61%30.27 "HgN/A
9:50 pm45 °FClear.5 mph57%30.27 "Hg10 mi
9:20 pm46 °FClear.3 mph57%30.30 "Hg10 mi
8:50 pm48 °FClear.5 mph54%30.30 "Hg10 mi
8:20 pm48 °FClear.6 mph50%30.30 "Hg10 mi
7:50 pm50 °FSunny.7 mph47%30.30 "Hg10 mi
7:20 pm50 °FSunny.8 mph47%30.30 "Hg10 mi
6:50 pm52 °FSunny.9 mph44%30.30 "Hg10 mi
6:20 pm54 °FSunny.10 mph41%30.30 "Hg10 mi
5:50 pm54 °FSunny.9 mph44%30.30 "Hg10 mi
5:20 pm54 °FSunny.12 mph44%30.30 "Hg10 mi
4:50 pm55 °FSunny.10 mph38%30.30 "Hg10 mi
4:20 pm55 °FPassing clouds.12 mph36%30.30 "HgN/A
3:50 pm55 °FPassing clouds.12 mph38%30.33 "HgN/A
3:20 pm55 °FSunny.10 mph38%30.33 "Hg10 mi
2:50 pm55 °FPassing clouds.12 mph38%30.33 "HgN/A
2:20 pm57 °FSunny.14 mph33%30.33 "Hg10 mi
1:50 pm57 °FPassing clouds.14 mph31%30.36 "HgN/A
1:20 pm57 °FSunny.12 mph31%30.36 "Hg10 mi
12:50 pm57 °FPassing clouds.9 mph33%30.36 "HgN/A
12:20 pm57 °FPassing clouds.14 mph31%30.36 "HgN/A
11:50 am55 °FSunny.14 mph33%30.36 "Hg10 mi
11:20 am55 °FPassing clouds.12 mph33%30.36 "HgN/A
Weather by CustomWeather, © 2021

See weather overview